Time;durP1;ratioP1;P1;durP2;ratioP2;P2;SDS_P1;SDS_P2;PMS_P1;PMS_P2;Temp;Humidity;BMP_temperature;BMP_pressure;BME280_temperature;BME280_humidity;BME280_pressure;Samples;Min_cycle;Max_cycle;Signal;HPM_P1;HPM_P2
2023/04/19 00:02:24;;;;;;;10.97;8.97;;;9.50;99.90;;;;;;4938720;29;20455;-82
2023/04/19 00:04:51;;;;;;;10.10;8.13;;;;;;;;;;4938054;29;20456;-82
2023/04/19 00:07:19;;;;;;;10.23;8.13;;;;;;;;;;4933649;29;20448;-81
2023/04/19 00:09:46;;;;;;;10.40;8.03;;;;;;;;;;4937217;29;20452;-82
2023/04/19 00:12:13;;;;;;;10.40;7.37;;;;;;;;;;4938364;29;20523;-82
2023/04/19 00:14:40;;;;;;;11.20;8.00;;;;;;;;;;4938572;29;20463;-81
2023/04/19 00:17:07;;;;;;;10.57;8.20;;;;;;;;;;4938375;29;20494;-83
2023/04/19 00:19:35;;;;;;;11.63;7.70;;;9.50;99.90;;;;;;4938376;29;20464;-83
2023/04/19 00:22:02;;;;;;;8.73;7.17;;;;;;;;;;4937283;29;20460;-82
2023/04/19 00:24:29;;;;;;;10.80;8.40;;;;;;;;;;4938275;29;20448;-83
2023/04/19 00:26:57;;;;;;;11.17;7.90;;;;;;;;;;4938063;29;20456;-82
2023/04/19 00:29:24;;;;;;;10.00;7.50;;;;;;;;;;4938495;29;20460;-83
2023/04/19 00:31:51;;;;;;;10.20;7.27;;;;;;;;;;4938231;29;20456;-82
2023/04/19 00:34:19;;;;;;;11.90;8.00;;;;;;;;;;4938163;29;20451;-82
2023/04/19 00:36:47;;;;;;;10.37;8.63;;;;;;;;;;4937017;29;20452;-83
2023/04/19 00:39:15;;;;;;;10.03;8.13;;;;;;;;;;4937963;29;20463;-81
2023/04/19 00:41:42;;;;;;;9.83;7.87;;;;;;;;;;4938029;29;20456;-83
2023/04/19 00:44:09;;;;;;;8.30;7.20;;;;;;;;;;4937958;29;20821;-82
2023/04/19 00:46:37;;;;;;;12.00;8.57;;;9.30;99.90;;;;;;4937963;29;20495;-81
2023/04/19 00:49:05;;;;;;;10.87;8.10;;;;;;;;;;4937928;29;20455;-82
2023/04/19 00:51:32;;;;;;;11.47;7.83;;;;;;;;;;4936606;29;21078;-82
2023/04/19 00:54:01;;;;;;;9.20;6.90;;;9.20;99.90;;;;;;4937722;29;20504;-82
2023/04/19 00:56:29;;;;;;;11.60;8.30;;;9.20;99.90;;;;;;4937769;29;20459;-83
2023/04/19 00:58:56;;;;;;;9.20;7.70;;;9.20;99.90;;;;;;4937975;29;20814;-82
2023/04/19 01:01:23;;;;;;;10.10;8.00;;;;;;;;;;4937797;29;20455;-82
2023/04/19 01:03:51;;;;;;;11.23;8.53;;;;;;;;;;4937758;29;20447;-82
2023/04/19 01:06:18;;;;;;;8.47;7.60;;;;;;;;;;4936356;29;20467;-82
2023/04/19 01:08:45;;;;;;;10.03;8.17;;;;;;;;;;4937770;29;20448;-82
2023/04/19 01:11:13;;;;;;;13.27;8.50;;;9.20;99.90;;;;;;4937533;29;20444;-83
2023/04/19 01:13:40;;;;;;;10.00;8.10;;;;;;;;;;4936816;29;20495;-82
2023/04/19 01:16:07;;;;;;;13.13;7.73;;;;;;;;;;4937367;29;20472;-83
2023/04/19 01:18:36;;;;;;;12.63;8.80;;;;;;;;;;4937476;29;20846;-82
2023/04/19 01:21:03;;;;;;;12.20;7.60;;;;;;;;;;4936170;29;20889;-81
2023/04/19 01:23:31;;;;;;;12.03;8.10;;;9.10;99.90;;;;;;4937282;29;20448;-83
2023/04/19 01:26:00;;;;;;;9.77;8.27;;;;;;;;;;4937296;29;20444;-83
2023/04/19 01:28:27;;;;;;;9.53;8.00;;;;;;;;;;4937209;29;20451;-83
2023/04/19 01:30:54;;;;;;;11.23;8.60;;;;;;;;;;4937352;29;20459;-81
2023/04/19 01:33:21;;;;;;;12.03;9.80;;;;;;;;;;4936874;29;20502;-82
2023/04/19 01:35:48;;;;;;;14.50;9.20;;;;;;;;;;4936028;29;20455;-83
2023/04/19 01:38:15;;;;;;;11.33;8.80;;;;;;;;;;4936658;29;20459;-82
2023/04/19 01:40:43;;;;;;;9.13;7.87;;;9.10;99.90;;;;;;4937114;29;20447;-82
2023/04/19 01:43:13;;;;;;;13.00;8.67;;;9.10;99.90;;;;;;4936866;29;20947;-82
2023/04/19 01:45:40;;;;;;;10.53;8.33;;;;;;;;;;4936957;29;21135;-83
2023/04/19 01:48:07;;;;;;;12.07;9.33;;;9.00;99.90;;;;;;4936859;29;20448;-82
2023/04/19 01:50:34;;;;;;;11.33;8.93;;;;;;;;;;4932736;29;20495;-82
2023/04/19 01:53:01;;;;;;;14.13;10.20;;;;;;;;;;4936597;29;20835;-82
2023/04/19 01:55:29;;;;;;;10.87;8.87;;;9.10;99.90;;;;;;4936834;29;20452;-82
2023/04/19 01:57:57;;;;;;;12.60;9.30;;;9.00;99.90;;;;;;4936679;29;20829;-83
2023/04/19 02:00:24;;;;;;;12.93;8.97;;;;;;;;;;4936644;29;20453;-82
2023/04/19 02:02:51;;;;;;;11.20;8.87;;;;;;;;;;4936564;29;20931;-81
2023/04/19 02:05:18;;;;;;;12.90;9.27;;;;;;;;;;4935341;29;20460;-82
2023/04/19 02:07:45;;;;;;;11.07;8.70;;;;;;;;;;4936496;29;20459;-83
2023/04/19 02:10:12;;;;;;;11.93;9.00;;;;;;;;;;4936504;29;20448;-82
2023/04/19 02:12:39;;;;;;;11.43;9.43;;;;;;;;;;4936308;29;20991;-82
2023/04/19 02:15:08;;;;;;;16.20;10.03;;;8.90;99.90;;;;;;4936231;29;20475;-82
2023/04/19 02:17:35;;;;;;;12.63;9.03;;;;;;;;;;4936498;29;20484;-82
2023/04/19 02:20:04;;;;;;;12.40;9.97;;;;;;;;;;4935263;29;20456;-82
2023/04/19 02:22:31;;;;;;;15.40;9.33;;;;;;;;;;4936391;29;20468;-82
2023/04/19 02:24:58;;;;;;;14.17;9.20;;;;;;;;;;4935453;29;20947;-82
2023/04/19 02:27:25;;;;;;;13.80;9.70;;;;;;;;;;4936169;29;20452;-82
2023/04/19 02:29:52;;;;;;;12.93;10.10;;;;;;;;;;4936083;29;20506;-82
2023/04/19 02:32:20;;;;;;;14.20;9.87;;;8.90;99.90;;;;;;4936172;29;20539;-82
2023/04/19 02:34:47;;;;;;;10.73;9.20;;;;;;;;;;4935901;29;20776;-81
2023/04/19 02:37:14;;;;;;;13.17;10.27;;;;;;;;;;4935282;29;20459;-82
2023/04/19 02:39:41;;;;;;;14.60;9.50;;;;;;;;;;4936017;29;20455;-83
2023/04/19 02:42:08;;;;;;;11.87;9.57;;;;;;;;;;4936017;29;20515;-82
2023/04/19 02:44:35;;;;;;;13.00;9.60;;;;;;;;;;4935924;29;20452;-82
2023/04/19 02:47:02;;;;;;;13.17;9.43;;;;;;;;;;4935959;29;20944;-82
2023/04/19 02:49:33;;;;;;;10.97;9.13;;;8.80;99.90;;;;;;4936129;29;20458;-82
2023/04/19 02:52:00;;;;;;;15.07;10.20;;;;;;;;;;4934641;29;20867;-81
2023/04/19 02:54:27;;;;;;;14.53;9.73;;;;;;;;;;4935900;29;20868;-80
2023/04/19 02:56:55;;;;;;;14.80;10.90;;;;;;;;;;4935781;29;20951;-82
2023/04/19 02:59:23;;;;;;;15.50;10.20;;;;;;;;;;4935927;29;20456;-82
2023/04/19 03:01:50;;;;;;;13.03;10.40;;;;;;;;;;4935899;29;20463;-81
2023/04/19 03:04:17;;;;;;;16.77;10.57;;;;;;;;;;4935874;29;20464;-82
2023/04/19 03:06:45;;;;;;;17.47;11.00;;;8.70;99.90;;;;;;4934645;29;20448;-80
2023/04/19 03:09:12;;;;;;;19.30;11.10;;;;;;;;;;4935800;29;20444;-81
2023/04/19 03:11:40;;;;;;;14.00;10.60;;;;;;;;;;4935830;29;20819;-82
2023/04/19 03:14:07;;;;;;;14.67;9.67;;;;;;;;;;4935709;29;20504;-81
2023/04/19 03:16:34;;;;;;;12.37;8.83;;;;;;;;;;4935633;29;20464;-81
2023/04/19 03:19:01;;;;;;;13.80;9.80;;;;;;;;;;4935815;29;20499;-82
2023/04/19 03:21:28;;;;;;;16.47;10.50;;;;;;;;;;4934704;29;20463;-81
2023/04/19 03:23:56;;;;;;;14.67;10.17;;;8.60;99.90;;;;;;4935852;29;20883;-82
2023/04/19 03:26:23;;;;;;;14.53;10.50;;;;;;;;;;4935600;29;20463;-81
2023/04/19 03:28:50;;;;;;;15.10;11.00;;;;;;;;;;4935772;29;20815;-82
2023/04/19 03:31:17;;;;;;;14.70;10.87;;;;;;;;;;4935733;29;20456;-81
2023/04/19 03:33:45;;;;;;;18.37;12.07;;;;;;;;;;4935695;29;20492;-81
2023/04/19 03:36:12;;;;;;;15.47;10.70;;;;;;;;;;4936426;29;20448;-81
2023/04/19 03:38:39;;;;;;;16.60;11.67;;;;;;;;;;4939289;29;20459;-82
2023/04/19 03:41:18;;;;;;;17.23;11.43;;;8.50;99.90;;;;;;4939367;29;20963;-81
2023/04/19 03:43:45;;;;;;;15.13;10.73;;;;;;;;;;4939169;29;20936;-81
2023/04/19 03:46:12;;;;;;;18.70;11.30;;;;;;;;;;4939329;29;20978;-81
2023/04/19 03:48:39;;;;;;;15.40;11.40;;;;;;;;;;4939110;29;20455;-81
2023/04/19 03:51:06;;;;;;;15.90;10.50;;;;;;;;;;4938051;29;20958;-81
2023/04/19 03:53:33;;;;;;;18.80;10.73;;;;;;;;;;4939069;29;20498;-81
2023/04/19 03:56:00;;;;;;;15.27;10.90;;;;;;;;;;4939033;29;20874;-82
2023/04/19 03:58:28;;;;;;;14.07;10.07;;;8.40;99.90;;;;;;4938990;29;20460;-81
2023/04/19 04:00:55;;;;;;;16.40;12.33;;;;;;;;;;4939079;29;20456;-81
2023/04/19 04:03:23;;;;;;;15.80;11.43;;;8.40;99.90;;;;;;4939105;29;20490;-81
2023/04/19 04:05:50;;;;;;;19.33;12.30;;;;;;;;;;4937737;29;20460;-80
2023/04/19 04:08:18;;;;;;;14.37;10.30;;;;;;;;;;4939010;29;20463;-80
2023/04/19 04:10:45;;;;;;;15.53;11.33;;;;;;;;;;4938973;29;20530;-81
2023/04/19 04:13:12;;;;;;;15.40;10.20;;;;;;;;;;4938605;29;21006;-81
2023/04/19 04:15:40;;;;;;;17.27;12.10;;;8.40;99.90;;;;;;4938705;29;20475;-82
2023/04/19 04:18:07;;;;;;;16.13;10.70;;;;;;;;;;4938723;29;20479;-81
2023/04/19 04:20:34;;;;;;;16.30;10.90;;;;;;;;;;4937741;29;20452;-82
2023/04/19 04:23:01;;;;;;;13.47;9.97;;;;;;;;;;4951752;29;20436;-80
2023/04/19 04:25:31;;;;;;;17.20;11.70;;;;;;;;;;4956765;29;20474;-81
2023/04/19 04:27:59;;;;;;;15.03;11.07;;;;;;;;;;4939023;29;20551;-82
2023/04/19 04:30:27;;;;;;;15.73;11.33;;;;;;;;;;4938596;29;20491;-80
2023/04/19 04:32:56;;;;;;;22.33;13.90;;;8.40;99.90;;;;;;4938397;29;20460;-80
2023/04/19 04:35:24;;;;;;;14.27;11.30;;;;;;;;;;4937315;29;20488;-81
2023/04/19 04:37:52;;;;;;;17.60;12.67;;;;;;;;;;4937017;29;20948;-81
2023/04/19 04:40:20;;;;;;;16.10;11.23;;;;;;;;;;4938343;29;20447;-81
2023/04/19 04:42:47;;;;;;;16.37;11.77;;;;;;;;;;4938349;29;20456;-81
2023/04/19 04:45:17;;;;;;;20.77;12.47;;;;;;;;;;4938285;29;20511;-81
2023/04/19 04:47:45;;;;;;;20.10;13.77;;;;;;;;;;4937157;29;20456;-81
2023/04/19 04:50:13;;;;;;;16.53;11.70;;;;;;;;;;4936954;29;20455;-80
2023/04/19 04:52:40;;;;;;;15.27;11.77;;;;;;;;;;4938263;29;20444;-81
2023/04/19 04:55:08;;;;;;;15.30;10.93;;;;;;;;;;4936730;29;20503;-81
2023/04/19 04:57:35;;;;;;;16.50;11.67;;;;;;;;;;4938090;29;20769;-80
2023/04/19 05:00:03;;;;;;;17.67;12.20;;;;;;;;;;4937871;29;20456;-80
2023/04/19 05:02:30;;;;;;;17.17;11.50;;;;;;;;;;4937937;29;20459;-81
2023/04/19 05:04:57;;;;;;;15.03;10.37;;;;;;;;;;4936620;29;20459;-80
2023/04/19 05:07:25;;;;;;;17.40;12.70;;;8.30;99.90;;;;;;4937780;29;20456;-81
2023/04/19 05:09:53;;;;;;;16.87;11.70;;;;;;;;;;4937692;29;20464;-81
2023/04/19 05:12:20;;;;;;;18.03;12.33;;;;;;;;;;4936351;29;20452;-81
2023/04/19 05:14:47;;;;;;;18.50;12.00;;;;;;;;;;4937513;29;20511;-80
2023/04/19 05:17:14;;;;;;;18.23;12.30;;;;;;;;;;4937560;29;20480;-81
2023/04/19 05:19:41;;;;;;;16.80;12.90;;;;;;;;;;4937569;29;20456;-81
2023/04/19 05:22:08;;;;;;;14.60;11.90;;;;;;;;;;4936093;29;20456;-82
2023/04/19 05:24:37;;;;;;;17.07;12.40;;;;;;;;;;4937468;29;20451;-81
2023/04/19 05:27:04;;;;;;;16.13;11.70;;;;;;;;;;4937273;29;20455;-80
2023/04/19 05:29:31;;;;;;;16.50;11.87;;;8.50;99.90;;;;;;4937269;29;20456;-80
2023/04/19 05:31:59;;;;;;;18.10;11.63;;;;;;;;;;4937266;29;21019;-81
2023/04/19 05:34:26;;;;;;;17.03;11.30;;;;;;;;;;4937150;29;20502;-81
2023/04/19 05:36:53;;;;;;;16.03;11.60;;;;;;;;;;4935947;29;20459;-81
2023/04/19 05:39:20;;;;;;;17.43;12.20;;;;;;;;;;4937151;29;20456;-81
2023/04/19 05:41:48;;;;;;;14.17;10.50;;;8.40;99.90;;;;;;4937010;29;20484;-80
2023/04/19 05:44:15;;;;;;;17.50;12.40;;;;;;;;;;4936455;29;20820;-80
2023/04/19 05:46:42;;;;;;;15.50;11.80;;;;;;;;;;4936989;29;20455;-81
2023/04/19 05:49:09;;;;;;;14.13;11.20;;;;;;;;;;4936977;29;20444;-81
2023/04/19 05:51:36;;;;;;;19.33;12.33;;;;;;;;;;4935696;29;20455;-82
2023/04/19 05:54:04;;;;;;;13.70;10.80;;;;;;;;;;4936606;29;20487;-81
2023/04/19 05:56:31;;;;;;;15.80;11.40;;;;;;;;;;4936672;29;20456;-82
2023/04/19 05:58:59;;;;;;;20.33;13.00;;;8.40;99.90;;;;;;4936576;29;20467;-81
2023/04/19 06:01:27;;;;;;;13.37;10.40;;;;;;;;;;4936786;29;20494;-81
2023/04/19 06:03:54;;;;;;;15.97;10.53;;;;;;;;;;4936739;29;20459;-81
2023/04/19 06:06:22;;;;;;;15.80;10.80;;;8.40;99.90;;;;;;4937315;29;20470;-81
2023/04/19 06:08:49;;;;;;;18.40;12.80;;;;;;;;;;4936392;29;20459;-81
2023/04/19 06:11:16;;;;;;;16.90;11.30;;;;;;;;;;4936026;29;20456;-82
2023/04/19 06:13:43;;;;;;;16.83;12.40;;;;;;;;;;4936371;29;20495;-81
2023/04/19 06:16:11;;;;;;;14.37;10.10;;;8.50;99.90;;;;;;4936593;29;20878;-82
2023/04/19 06:18:39;;;;;;;14.30;10.70;;;;;;;;;;4936450;29;20475;-81
2023/04/19 06:21:06;;;;;;;17.33;11.50;;;;;;;;;;4935302;29;20462;-81
2023/04/19 06:23:34;;;;;;;17.60;12.30;;;;;;;;;;4936275;29;20447;-82
2023/04/19 06:26:01;;;;;;;16.43;11.53;;;;;;;;;;4936316;29;20454;-82
2023/04/19 06:28:28;;;;;;;20.13;12.40;;;;;;;;;;4936220;29;20456;-81
2023/04/19 06:30:55;;;;;;;18.53;13.70;;;;;;;;;;4936042;29;20491;-81
2023/04/19 06:33:23;;;;;;;18.90;12.77;;;;;;;;;;4936392;29;20451;-82
2023/04/19 06:35:50;;;;;;;15.40;11.23;;;;;;;;;;4934858;29;20581;-84
2023/04/19 06:38:17;;;;;;;18.20;13.20;;;;;;;;;;4936359;29;20472;-87
2023/04/19 06:40:44;;;;;;;14.70;10.57;;;;;;;;;;4934341;29;20475;-85
2023/04/19 06:43:11;;;;;;;17.53;11.80;;;;;;;;;;4936097;29;20824;-86
2023/04/19 06:45:38;;;;;;;18.20;11.73;;;;;;;;;;4936276;29;20821;-87
2023/04/19 06:48:06;;;;;;;20.10;13.03;;;;;;;;;;4936149;29;20468;-86
2023/04/19 06:50:36;;;;;;;16.70;12.87;;;9.10;99.90;;;;;;4934849;29;20467;-83
2023/04/19 06:53:03;;;;;;;17.47;11.00;;;;;;;;;;4936307;29;20495;-87
2023/04/19 06:55:30;;;;;;;16.33;12.20;;;;;;;;;;4936390;29;20509;-84
2023/04/19 06:57:58;;;;;;;15.80;10.43;;;;;;;;;;4953602;29;20463;-81
2023/04/19 07:00:25;;;;;;;15.33;12.77;;;;;;;;;;4946072;29;20452;-83
2023/04/19 07:02:52;;;;;;;15.73;11.30;;;;;;;;;;4936411;29;20459;-86
2023/04/19 07:05:19;;;;;;;16.00;10.70;;;;;;;;;;4933832;29;20456;-86
2023/04/19 07:07:47;;;;;;;14.27;11.00;;;9.40;99.90;;;;;;4935623;29;20546;-88
2023/04/19 07:10:14;;;;;;;14.83;10.43;;;;;;;;;;4936620;29;20448;-82
2023/04/19 07:12:41;;;;;;;15.20;13.60;;;;;;;;;;4939778;29;20516;-87
2023/04/19 07:15:09;;;;;;;15.23;11.20;;;9.90;99.90;;;;;;4939824;29;20503;-87
2023/04/19 07:17:36;;;;;;;13.93;11.30;;;;;;;;;;4939446;29;20486;-87
2023/04/19 07:20:05;;;;;;;12.67;9.77;;;;;;;;;;4937592;29;20459;-82
2023/04/19 07:22:32;;;;;;;13.97;10.33;;;;;;;;;;4940737;29;20800;-86
2023/04/19 07:25:01;;;;;;;14.50;10.50;;;;;;;;;;4939617;29;20463;-87
2023/04/19 07:27:28;;;;;;;15.10;11.30;;;;;;;;;;4955045;29;20459;-86
2023/04/19 07:29:55;;;;;;;13.50;11.20;;;;;;;;;;4958771;28;20446;-85
2023/04/19 07:32:22;;;;;;;13.10;10.10;;;;;;;;;;4958773;28;20449;-82
2023/04/19 07:34:50;;;;;;;12.73;9.80;;;;;;;;;;4958429;28;20493;-83
2023/04/19 07:37:17;;;;;;;18.37;12.87;;;;;;;;;;4958101;28;20449;-83
2023/04/19 07:39:44;;;;;;;17.20;11.50;;;;;;;;;;4943620;28;20455;-88
2023/04/19 07:42:13;;;;;;;15.70;11.17;;;10.00;99.90;;;;;;4939441;29;20479;-87
2023/04/19 07:44:40;;;;;;;15.40;11.30;;;;;;;;;;4939485;29;20455;-87
2023/04/19 07:47:07;;;;;;;10.93;7.00;;;;;;;;;;4938158;29;20785;-84
2023/04/19 07:49:34;;;;;;;13.33;10.07;;;10.30;99.90;;;;;;4939240;29;20494;-84
2023/04/19 07:52:02;;;;;;;15.00;11.00;;;;;;;;;;4935542;29;22540;-86
2023/04/19 07:54:30;;;;;;;13.93;10.50;;;;;;;;;;4945183;29;20502;-83
2023/04/19 07:56:57;;;;;;;15.17;10.50;;;;;;;;;;4934165;29;20490;-87
2023/04/19 07:59:26;;;;;;;13.40;10.33;;;11.00;99.90;;;;;;4939244;29;20470;-85
2023/04/19 08:01:53;;;;;;;15.07;10.30;;;;;;;;;;4938695;29;20454;-87
2023/04/19 08:04:21;;;;;;;12.97;10.23;;;;;;;;;;4938980;29;20455;-85
2023/04/19 08:06:48;;;;;;;15.47;11.47;;;;;;;;;;4937595;29;20554;-88
2023/04/19 08:09:16;;;;;;;13.77;9.90;;;;;;;;;;4936838;29;20866;-87
2023/04/19 08:11:43;;;;;;;13.43;9.00;;;;;;;;;;4938967;29;20847;-85
2023/04/19 08:14:10;;;;;;;11.90;9.67;;;;;;;;;;4938618;29;20818;-87
2023/04/19 08:16:38;;;;;;;10.77;9.40;;;13.30;99.90;;;;;;4938636;29;20479;-84
2023/04/19 08:19:06;;;;;;;13.33;9.57;;;;;;;;;;4936408;29;20487;-86
2023/04/19 08:21:33;;;;;;;12.10;9.43;;;;;;;;;;4937223;29;20940;-82
2023/04/19 08:24:02;;;;;;;9.07;8.13;;;;;;;;;;4938624;29;20448;-82
2023/04/19 08:26:30;;;;;;;9.87;8.27;;;;;;;;;;4945572;29;20451;-84
2023/04/19 08:28:57;;;;;;;10.47;9.10;;;;;;;;;;4949619;28;20455;-85
2023/04/19 08:31:24;;;;;;;7.80;6.47;;;;;;;;;;4948128;29;20443;-83
2023/04/19 08:33:53;;;;;;;14.00;9.10;;;;;;;;;;4952724;29;20439;-82
2023/04/19 08:36:20;;;;;;;12.40;8.80;;;;;;;;;;4949328;28;20550;-81
2023/04/19 08:38:47;;;;;;;10.77;8.30;;;;;;;;;;4943114;29;20549;-82
2023/04/19 08:41:15;;;;;;;9.77;7.77;;;;;;;;;;4940320;29;20456;-84
2023/04/19 08:43:43;;;;;;;10.27;8.10;;;12.80;99.80;;;;;;4957173;29;20461;-81
2023/04/19 08:46:12;;;;;;;10.10;8.50;;;12.50;99.90;;;;;;4951715;29;20459;-84
2023/04/19 08:48:40;;;;;;;10.30;8.17;;;12.40;99.90;;;;;;4938258;29;20538;-84
2023/04/19 08:51:08;;;;;;;10.03;7.97;;;;;;;;;;4936829;29;20533;-83
2023/04/19 08:53:36;;;;;;;7.87;7.07;;;;;;;;;;4937914;29;20466;-85
2023/04/19 08:56:03;;;;;;;9.80;7.30;;;13.40;97.60;;;;;;4953941;29;20498;-85
2023/04/19 08:58:32;;;;;;;8.57;7.50;;;;;;;;;;4950831;29;20460;-86
2023/04/19 09:00:59;;;;;;;9.13;6.67;;;;;;;;;;4939637;29;20522;-88
2023/04/19 09:03:26;;;;;;;9.93;7.23;;;;;;;;;;4948312;29;20991;-88
2023/04/19 09:05:54;;;;;;;8.07;6.30;;;;;;;;;;4942303;29;20455;-88
2023/04/19 09:08:25;;;;;;;9.40;6.73;;;13.10;98.20;;;;;;4937349;29;20799;-85
2023/04/19 09:10:56;;;;;;;9.30;6.87;;;12.80;96.10;;;;;;4956062;29;20935;-86
2023/04/19 09:13:23;;;;;;;8.30;6.93;;;;;;;;;;4956750;29;20451;-84
2023/04/19 09:15:50;;;;;;;8.10;6.03;;;;;;;;;;4944818;29;20862;-84
2023/04/19 09:18:18;;;;;;;9.17;7.00;;;;;;;;;;4937051;29;20491;-85
2023/04/19 09:20:45;;;;;;;7.00;6.20;;;;;;;;;;4936169;29;20467;-86
2023/04/19 09:23:13;;;;;;;8.40;6.93;;;13.40;98.40;;;;;;4937363;29;20810;-86
2023/04/19 09:25:52;;;;;;;7.10;5.73;;;12.80;97.70;;;;;;4937486;29;20959;-87
2023/04/19 09:28:19;;;;;;;6.40;5.77;;;;;;;;;;4937686;29;20471;-82
2023/04/19 09:30:46;;;;;;;8.23;7.27;;;;;;;;;;4937774;29;20451;-87
2023/04/19 09:33:14;;;;;;;7.03;6.33;;;;;;;;;;4936946;29;20821;-83
2023/04/19 09:35:43;;;;;;;7.97;6.70;;;13.90;99.90;;;;;;4935929;29;20531;-81
2023/04/19 09:38:10;;;;;;;14.00;7.40;;;;;;;;;;4936124;29;20452;-87
2023/04/19 09:40:38;;;;;;;10.03;7.40;;;;;;;;;;4937324;29;20448;-81
2023/04/19 09:43:06;;;;;;;8.80;7.10;;;15.00;95.50;;;;;;4937429;29;20475;-86
2023/04/19 09:45:42;;;;;;;7.90;7.20;;;15.10;93.20;;;;;;4937132;29;20459;-85
2023/04/19 09:48:10;;;;;;;7.80;6.73;;;;;;;;;;4936699;29;20526;-90
2023/04/19 09:50:50;;;;;;;8.97;7.43;;;14.50;93.10;;;;;;4936675;29;20941;-91
2023/04/19 09:53:17;;;;;;;7.93;6.80;;;;;;;;;;4937325;29;20452;-94
2023/04/19 09:55:46;;;;;;;8.27;7.37;;;15.90;97.70;;;;;;4937133;29;20842;-90
2023/04/19 09:58:15;;;;;;;9.50;8.50;;;;;;;;;;4937558;29;20483;-87
2023/04/19 10:00:42;;;;;;;12.30;8.90;;;;;;;;;;4937155;29;20472;-87
2023/04/19 10:03:10;;;;;;;16.90;14.67;;;16.60;92.90;;;;;;4937114;29;20444;-84
2023/04/19 10:05:39;;;;;;;10.77;9.40;;;16.30;93.80;;;;;;4935934;29;20456;-88
2023/04/19 10:08:07;;;;;;;9.87;8.80;;;16.00;95.30;;;;;;4937312;29;20653;-89
2023/04/19 10:10:35;;;;;;;13.40;10.80;;;;;;;;;;4938031;29;20943;-89
2023/04/19 10:13:04;;;;;;;11.70;9.70;;;16.20;95.40;;;;;;4936947;29;20452;-89
2023/04/19 10:15:34;;;;;;;10.10;8.20;;;16.50;95.00;;;;;;4936575;29;20833;-84
2023/04/19 10:18:01;;;;;;;12.37;9.90;;;16.70;91.80;;;;;;4933227;29;20475;-89
2023/04/19 10:20:35;;;;;;;11.60;8.93;;;16.40;92.40;;;;;;4935788;29;20447;-85
2023/04/19 10:23:02;;;;;;;9.07;6.90;;;;;;;;;;4936591;29;20452;-89
2023/04/19 10:25:30;;;;;;;9.30;8.30;;;16.00;92.90;;;;;;4936682;29;20460;-84
2023/04/19 10:27:58;;;;;;;9.80;8.30;;;16.20;93.80;;;;;;4936437;29;20551;-83
2023/04/19 10:30:26;;;;;;;8.63;7.40;;;;;;;;;;4933586;29;20931;-88
2023/04/19 10:32:56;;;;;;;7.50;6.63;;;15.90;93.90;;;;;;4936523;29;20511;-85
2023/04/19 10:35:24;;;;;;;7.53;6.73;;;15.80;92.80;;;;;;4935273;29;20507;-84
2023/04/19 10:38:05;;;;;;;10.10;7.77;;;15.60;90.10;;;;;;4938663;29;20451;-85
2023/04/19 10:40:59;;;;;;;10.30;8.67;;;15.40;89.20;;;;;;4936133;29;20526;-82
2023/04/19 10:43:27;;;;;;;11.90;9.03;;;15.50;91.70;;;;;;4935931;29;21025;-83
2023/04/19 10:45:54;;;;;;;8.10;7.30;;;;;;;;;;4932727;29;20491;-86
2023/04/19 10:48:37;;;;;;;9.07;7.33;;;15.00;90.50;;;;;;4935794;29;20458;-87
2023/04/19 10:51:13;;;;;;;8.87;7.50;;;14.70;88.20;;;;;;4934894;29;20448;-86
2023/04/19 10:53:48;;;;;;;10.77;8.20;;;14.00;90.40;;;;;;4936172;29;20451;-85
2023/04/19 10:56:15;;;;;;;8.27;6.87;;;14.10;93.10;;;;;;4935592;29;20566;-87
2023/04/19 10:59:20;;;;;;;8.70;6.70;;;13.80;96.10;;;;;;4935609;29;20456;-82
2023/04/19 11:01:48;;;;;;;10.73;7.70;;;14.20;96.80;;;;;;4933439;28;20971;-83
2023/04/19 11:04:18;;;;;;;8.37;7.30;;;13.80;96.40;;;;;;4935718;29;20456;-84
2023/04/19 11:07:00;;;;;;;9.10;6.70;;;13.60;93.00;;;;;;4934467;29;20455;-83
2023/04/19 11:09:33;;;;;;;11.90;7.03;;;13.60;93.60;;;;;;4935362;29;20484;-83
2023/04/19 11:12:02;;;;;;;12.50;6.77;;;13.40;98.20;;;;;;4935567;29;20484;-85
2023/04/19 11:14:35;;;;;;;8.77;7.00;;;13.50;98.40;;;;;;4935342;29;20452;-90
2023/04/19 11:17:03;;;;;;;10.60;7.70;;;13.40;99.20;;;;;;4935133;29;20507;-88
2023/04/19 11:19:33;;;;;;;10.90;7.53;;;13.30;96.20;;;;;;4935470;29;20456;-88
2023/04/19 11:22:00;;;;;;;10.77;7.13;;;;;;;;;;4935102;29;20467;-89
2023/04/19 11:24:27;;;;;;;10.10;7.20;;;;;;;;;;4936543;29;20458;-85
2023/04/19 11:26:56;;;;;;;7.80;6.80;;;12.90;99.90;;;;;;4935633;29;20464;-87
2023/04/19 11:29:23;;;;;;;9.50;7.23;;;;;;;;;;4934687;29;20448;-88
2023/04/19 11:31:51;;;;;;;7.67;6.83;;;;;;;;;;4935743;29;20452;-89
2023/04/19 11:34:18;;;;;;;8.20;6.83;;;;;;;;;;4935830;29;20798;-86
2023/04/19 11:36:51;;;;;;;10.30;7.50;;;;;;;;;;4934566;29;20531;-83
2023/04/19 11:39:18;;;;;;;11.43;7.70;;;;;;;;;;4935602;29;20461;-84
2023/04/19 11:41:46;;;;;;;11.93;8.47;;;;;;;;;;4935610;29;20456;-87
2023/04/19 11:44:14;;;;;;;8.73;7.17;;;;;;;;;;4934431;29;20459;-89
2023/04/19 11:46:41;;;;;;;11.33;10.00;;;;;;;;;;4935666;29;20456;-91
2023/04/19 11:49:08;;;;;;;10.40;8.27;;;;;;;;;;4935950;29;20455;-85
2023/04/19 11:51:35;;;;;;;10.53;7.30;;;;;;;;;;4934704;29;20463;-85
2023/04/19 11:54:13;;;;;;;10.63;7.90;;;12.00;99.90;;;;;;4936761;29;20821;-91
2023/04/19 11:57:02;;;;;;;11.07;7.37;;;11.80;99.90;;;;;;4937309;29;20542;-93
2023/04/19 11:59:29;;;;;;;12.20;8.67;;;;;;;;;;4939458;29;20455;-91
2023/04/19 12:01:57;;;;;;;14.30;9.00;;;;;;;;;;4939827;29;20519;-89
2023/04/19 12:04:24;;;;;;;9.87;8.03;;;;;;;;;;4939236;29;20444;-86
2023/04/19 12:06:58;;;;;;;11.87;8.30;;;11.40;99.90;;;;;;4938462;29;20459;-90
2023/04/19 12:09:27;;;;;;;10.60;8.10;;;;;;;;;;4939524;29;20943;-90
2023/04/19 12:11:54;;;;;;;12.87;8.87;;;;;;;;;;4939200;29;20455;-84
2023/04/19 12:14:22;;;;;;;14.07;9.37;;;11.20;99.90;;;;;;4939211;29;20498;-81
2023/04/19 12:17:14;;;;;;;10.40;9.00;;;11.20;99.90;;;;;;4939208;29;20506;-83
2023/04/19 12:19:45;;;;;;;11.97;8.40;;;11.20;99.90;;;;;;4929585;28;20464;-82
2023/04/19 12:22:14;;;;;;;11.37;9.70;;;11.00;99.90;;;;;;4937998;29;21018;-83
2023/04/19 12:24:43;;;;;;;11.43;8.87;;;10.90;99.90;;;;;;4938893;29;20456;-89
2023/04/19 12:27:10;;;;;;;12.93;9.70;;;10.90;99.90;;;;;;4938593;29;20452;-85
2023/04/19 12:29:38;;;;;;;13.47;9.70;;;10.80;99.90;;;;;;4935795;29;20462;-84
2023/04/19 12:32:05;;;;;;;14.27;10.80;;;;;;;;;;4938707;29;20462;-88
2023/04/19 12:34:32;;;;;;;12.33;10.30;;;;;;;;;;4938591;29;20455;-90
2023/04/19 12:37:00;;;;;;;11.80;9.53;;;;;;;;;;4937494;29;20519;-85
2023/04/19 12:39:27;;;;;;;13.90;10.40;;;;;;;;;;4938544;29;20467;-86
2023/04/19 12:41:56;;;;;;;12.13;10.00;;;10.50;99.90;;;;;;4938396;29;20503;-85
2023/04/19 12:44:23;;;;;;;12.77;9.80;;;;;;;;;;4938434;29;20448;-86
2023/04/19 12:46:50;;;;;;;13.33;11.33;;;;;;;;;;4938168;29;20459;-85
2023/04/19 12:49:19;;;;;;;15.20;11.13;;;10.30;99.90;;;;;;4937991;29;20515;-86
2023/04/19 12:51:47;;;;;;;14.00;10.97;;;;;;;;;;4936990;29;20487;-85
2023/04/19 12:54:14;;;;;;;14.00;11.00;;;;;;;;;;4937817;29;20485;-86
2023/04/19 12:56:41;;;;;;;13.57;11.07;;;;;;;;;;4938206;29;20518;-87
2023/04/19 12:59:10;;;;;;;20.80;12.97;;;;;;;;;;4937918;29;20458;-85
2023/04/19 13:01:37;;;;;;;18.90;11.30;;;;;;;;;;4935027;29;20463;-86
2023/04/19 13:04:04;;;;;;;17.87;11.87;;;;;;;;;;4937831;29;20838;-86
2023/04/19 13:06:31;;;;;;;24.43;12.53;;;;;;;;;;4937441;29;20558;-82
2023/04/19 13:08:59;;;;;;;19.20;13.03;;;;;;;;;;4936810;29;20455;-87
2023/04/19 13:11:26;;;;;;;20.10;14.23;;;;;;;;;;4937728;29;20971;-83
2023/04/19 13:13:53;;;;;;;16.93;12.00;;;;;;;;;;4937391;29;20456;-86
2023/04/19 13:16:21;;;;;;;18.30;12.83;;;;;;;;;;4937432;29;20511;-86
2023/04/19 13:18:49;;;;;;;20.03;13.53;;;;;;;;;;4937644;29;20462;-84
2023/04/19 13:21:16;;;;;;;20.77;15.30;;;;;;;;;;4936275;29;20866;-84
2023/04/19 13:23:44;;;;;;;21.97;14.13;;;;;;;;;;4937560;29;20459;-86
2023/04/19 13:26:11;;;;;;;20.50;14.60;;;;;;;;;;4937454;29;20511;-84
2023/04/19 13:28:38;;;;;;;22.97;14.90;;;;;;;;;;4937363;29;20807;-83
2023/04/19 13:31:06;;;;;;;21.53;14.63;;;;;;;;;;4937240;29;20444;-86
2023/04/19 13:33:34;;;;;;;20.47;13.63;;;9.40;99.90;;;;;;4937253;29;20452;-85
2023/04/19 13:36:01;;;;;;;16.33;11.67;;;;;;;;;;4936168;29;20456;-87
2023/04/19 13:38:28;;;;;;;23.80;14.07;;;;;;;;;;4937337;29;20454;-86
2023/04/19 13:40:55;;;;;;;17.70;12.43;;;;;;;;;;4937271;29;20959;-87
2023/04/19 13:43:22;;;;;;;19.83;13.57;;;;;;;;;;4937269;29;20806;-89
2023/04/19 13:45:49;;;;;;;18.70;11.90;;;;;;;;;;4937322;29;20459;-86
2023/04/19 13:48:16;;;;;;;16.10;11.57;;;;;;;;;;4937107;29;20455;-87
2023/04/19 13:50:45;;;;;;;15.23;11.17;;;;;;;;;;4935817;29;20452;-87
2023/04/19 13:53:12;;;;;;;23.90;12.00;;;;;;;;;;4937152;29;20480;-87
2023/04/19 13:55:40;;;;;;;15.63;11.30;;;;;;;;;;4937093;29;20813;-84
2023/04/19 13:58:07;;;;;;;14.97;11.40;;;;;;;;;;4936930;29;20496;-86
2023/04/19 14:00:34;;;;;;;14.23;10.73;;;;;;;;;;4936680;29;20452;-85